createdAt,value
2023-02-17T00:01:18.526Z,94.80
2023-02-17T00:03:48.983Z,94.70
2023-02-17T00:06:18.913Z,94.80
2023-02-17T00:08:49.365Z,94.80
2023-02-17T00:11:18.713Z,94.80
2023-02-17T00:13:47.445Z,94.80
2023-02-17T00:16:19.532Z,94.80
2023-02-17T00:18:53.372Z,94.90
2023-02-17T00:21:23.161Z,95.20
2023-02-17T00:23:51.844Z,94.80
2023-02-17T00:26:20.739Z,94.70
2023-02-17T00:28:49.620Z,94.70
2023-02-17T00:31:20.781Z,94.70
2023-02-17T00:33:50.582Z,94.70
2023-02-17T00:36:20.658Z,94.60
2023-02-17T00:38:49.903Z,94.70
2023-02-17T00:41:18.076Z,94.70
2023-02-17T00:43:45.950Z,94.70
2023-02-17T00:46:14.751Z,94.70
2023-02-17T00:48:43.258Z,94.70
2023-02-17T00:51:12.728Z,94.80
2023-02-17T00:53:41.329Z,94.70
2023-02-17T00:56:10.636Z,94.70
2023-02-17T00:58:38.978Z,94.60
2023-02-17T01:01:06.912Z,94.70
2023-02-17T01:03:34.834Z,94.60
2023-02-17T01:06:07.409Z,94.60
2023-02-17T01:08:37.248Z,94.70
2023-02-17T01:11:08.303Z,94.60
2023-02-17T01:13:36.125Z,94.40
2023-02-17T01:16:04.276Z,94.60
2023-02-17T01:18:32.420Z,94.70
2023-02-17T01:21:00.303Z,94.60
2023-02-17T01:23:28.168Z,94.50
2023-02-17T01:25:57.412Z,94.50
2023-02-17T01:28:25.294Z,94.60
2023-02-17T01:30:53.481Z,94.50
2023-02-17T01:33:21.304Z,94.40
2023-02-17T01:35:49.082Z,94.50
2023-02-17T01:38:16.914Z,94.40
2023-02-17T01:40:49.128Z,94.40
2023-02-17T01:43:19.157Z,94.40
2023-02-17T01:45:53.590Z,94.40
2023-02-17T01:48:25.197Z,94.60
2023-02-17T01:50:56.146Z,94.60
2023-02-17T01:53:28.941Z,94.60
2023-02-17T01:55:57.474Z,94.70
2023-02-17T01:58:28.844Z,94.60
2023-02-17T02:01:00.207Z,94.60
2023-02-17T02:03:31.344Z,94.80
2023-02-17T02:06:00.122Z,94.80
2023-02-17T02:08:30.904Z,94.70
2023-02-17T02:10:59.090Z,94.80
2023-02-17T02:13:28.336Z,94.70
2023-02-17T02:16:02.472Z,94.70
2023-02-17T02:18:42.608Z,94.80
2023-02-17T02:22:05.848Z,94.70
2023-02-17T02:24:49.726Z,94.90
2023-02-17T02:27:36.761Z,94.60
2023-02-17T02:30:29.263Z,94.60
2023-02-17T02:33:05.887Z,94.60
2023-02-17T02:35:43.394Z,94.60
2023-02-17T02:38:17.517Z,94.60
2023-02-17T02:40:49.824Z,94.50
2023-02-17T02:43:18.377Z,94.40
2023-02-17T02:45:46.695Z,94.30
2023-02-17T02:48:18.165Z,94.00
2023-02-17T02:51:06.639Z,94.30
2023-02-17T02:54:05.021Z,94.40
2023-02-17T02:56:48.485Z,94.40
2023-02-17T02:59:29.605Z,94.40
2023-02-17T03:02:07.349Z,94.40
2023-02-17T03:04:40.128Z,94.40
2023-02-17T03:07:21.073Z,94.40
2023-02-17T03:09:50.223Z,94.40
2023-02-17T03:12:18.262Z,94.50
2023-02-17T03:14:48.205Z,94.40
2023-02-17T03:17:18.810Z,94.30
2023-02-17T03:19:48.730Z,94.50
2023-02-17T03:22:20.804Z,94.50
2023-02-17T03:24:48.840Z,94.50
2023-02-17T03:27:16.721Z,94.70
2023-02-17T03:29:44.597Z,94.50
2023-02-17T03:32:12.877Z,94.50
2023-02-17T03:34:40.940Z,94.50
2023-02-17T03:37:12.497Z,94.50
2023-02-17T03:39:40.581Z,94.60
2023-02-17T03:42:08.396Z,94.60
2023-02-17T03:44:36.251Z,94.60
2023-02-17T03:47:04.514Z,94.60
2023-02-17T03:49:32.501Z,94.60
2023-02-17T03:52:00.505Z,94.10
2023-02-17T03:54:29.785Z,94.60
2023-02-17T03:56:59.076Z,94.70
2023-02-17T03:59:27.171Z,94.70
2023-02-17T04:01:55.149Z,94.70
2023-02-17T04:04:23.193Z,94.70
2023-02-17T04:06:51.017Z,94.70
2023-02-17T04:09:18.820Z,94.80
2023-02-17T04:11:48.103Z,94.70
2023-02-17T04:14:16.278Z,94.70
2023-02-17T04:16:44.108Z,94.70
2023-02-17T04:19:12.157Z,94.70
2023-02-17T04:21:40.036Z,94.40
2023-02-17T04:24:07.904Z,94.70
2023-02-17T04:26:35.927Z,94.70
2023-02-17T04:29:06.819Z,94.70
2023-02-17T04:31:34.669Z,94.70
2023-02-17T04:34:02.503Z,94.70
2023-02-17T04:36:30.394Z,94.70
2023-02-17T04:38:58.236Z,94.70
2023-02-17T04:41:26.077Z,94.80
2023-02-17T04:43:53.867Z,94.70
2023-02-17T04:46:23.217Z,94.70
2023-02-17T04:48:51.119Z,94.80
2023-02-17T04:51:19.014Z,94.80
2023-02-17T04:53:49.977Z,94.80
2023-02-17T04:56:17.854Z,94.80
2023-02-17T04:58:45.743Z,94.80
2023-02-17T05:01:13.809Z,94.80
2023-02-17T05:03:43.102Z,94.80
2023-02-17T05:06:10.948Z,94.80
2023-02-17T05:08:39.039Z,94.70
2023-02-17T05:11:08.586Z,94.80
2023-02-17T05:13:36.400Z,95.20
2023-02-17T05:16:07.200Z,94.90
2023-02-17T05:18:35.275Z,94.90
2023-02-17T05:21:04.854Z,94.90
2023-02-17T05:23:32.733Z,94.90
2023-02-17T05:26:00.687Z,94.90
2023-02-17T05:28:28.686Z,94.90
2023-02-17T05:30:56.518Z,94.90
2023-02-17T05:33:24.343Z,95.00
2023-02-17T05:35:52.204Z,95.00
2023-02-17T05:38:21.970Z,95.00
2023-02-17T05:40:51.244Z,95.00
2023-02-17T05:43:19.040Z,95.00
2023-02-17T05:45:47.158Z,95.00
2023-02-17T05:48:15.901Z,95.00
2023-02-17T05:50:44.012Z,95.10
2023-02-17T05:53:12.060Z,95.20
2023-02-17T05:55:41.221Z,95.10
2023-02-17T05:58:09.060Z,95.20
2023-02-17T06:00:36.978Z,95.10
2023-02-17T06:03:05.086Z,95.10
2023-02-17T06:05:33.026Z,95.20
2023-02-17T06:08:00.834Z,95.30
2023-02-17T06:10:28.730Z,95.30
2023-02-17T06:12:57.930Z,95.30
2023-02-17T06:15:25.902Z,95.30
2023-02-17T06:17:53.738Z,95.30
2023-02-17T06:20:21.942Z,95.30
2023-02-17T06:22:49.783Z,95.50
2023-02-17T06:25:17.878Z,95.50
2023-02-17T06:27:45.762Z,95.60
2023-02-17T06:30:17.581Z,95.60
2023-02-17T06:32:45.654Z,95.60
2023-02-17T06:35:13.834Z,94.80
2023-02-17T06:37:41.613Z,95.60
2023-02-17T06:40:10.997Z,95.70
2023-02-17T06:42:38.845Z,95.70
2023-02-17T06:45:10.394Z,95.70
2023-02-17T06:47:39.748Z,95.60
2023-02-17T06:50:09.337Z,95.70
2023-02-17T06:52:37.201Z,95.70
2023-02-17T06:55:06.016Z,95.70
2023-02-17T06:57:33.874Z,95.00
2023-02-17T07:00:01.692Z,95.80
2023-02-17T07:02:29.655Z,95.70
2023-02-17T07:04:58.929Z,95.70
2023-02-17T07:07:26.808Z,95.70
2023-02-17T07:09:54.645Z,95.70
2023-02-17T07:12:22.485Z,95.80
2023-02-17T07:14:50.614Z,96.10
2023-02-17T07:17:18.567Z,95.80
2023-02-17T07:19:49.787Z,95.80
2023-02-17T07:22:19.068Z,96.20
2023-02-17T07:24:49.999Z,95.70
2023-02-17T07:27:17.909Z,95.80
2023-02-17T07:29:45.817Z,95.80
2023-02-17T07:32:13.822Z,95.80
2023-02-17T07:34:41.604Z,95.80
2023-02-17T07:37:09.875Z,95.80
2023-02-17T07:39:39.102Z,95.80
2023-02-17T07:42:09.895Z,95.80
2023-02-17T07:44:37.805Z,95.90
2023-02-17T07:47:08.286Z,95.90
2023-02-17T07:49:36.250Z,95.90
2023-02-17T07:52:05.453Z,95.80
2023-02-17T07:54:33.469Z,95.80
2023-02-17T07:57:02.764Z,96.10
2023-02-17T07:59:30.810Z,95.90
2023-02-17T08:01:58.687Z,95.90
2023-02-17T08:04:26.757Z,95.80
2023-02-17T08:06:54.774Z,95.70
2023-02-17T08:09:40.193Z,95.90
2023-02-17T08:12:33.285Z,95.90
2023-02-17T08:15:01.834Z,95.90
2023-02-17T08:17:30.388Z,95.80
2023-02-17T08:20:00.513Z,95.70
2023-02-17T08:22:29.988Z,95.90
2023-02-17T08:24:57.924Z,95.80
2023-02-17T08:27:27.316Z,95.80
2023-02-17T08:29:55.906Z,95.80
2023-02-17T08:32:24.407Z,95.70
2023-02-17T08:34:55.965Z,95.80
2023-02-17T08:37:23.951Z,95.70
2023-02-17T08:39:52.066Z,95.60
2023-02-17T08:42:20.067Z,95.60
2023-02-17T08:44:49.611Z,95.60
2023-02-17T08:47:17.600Z,95.60
2023-02-17T08:49:45.742Z,95.50
2023-02-17T08:52:13.764Z,95.50
2023-02-17T08:54:41.651Z,95.60
2023-02-17T08:57:09.462Z,95.40
2023-02-17T08:59:37.353Z,95.40
2023-02-17T09:02:06.942Z,95.40
2023-02-17T09:04:34.926Z,95.40
2023-02-17T09:07:03.919Z,95.30
2023-02-17T09:09:32.527Z,95.30
2023-02-17T09:12:00.476Z,95.30
2023-02-17T09:14:29.023Z,95.30
2023-02-17T09:16:57.742Z,95.30
2023-02-17T09:19:27.421Z,95.20
2023-02-17T09:21:55.559Z,95.40
2023-02-17T09:24:23.537Z,95.30
2023-02-17T09:26:51.507Z,95.30
2023-02-17T09:29:19.642Z,95.20
2023-02-17T09:31:47.791Z,95.20
2023-02-17T09:34:16.371Z,95.10
2023-02-17T09:36:45.797Z,95.10
2023-02-17T09:39:14.717Z,95.00
2023-02-17T09:41:47.101Z,95.00
2023-02-17T09:44:21.913Z,95.00
2023-02-17T09:47:02.201Z,95.00
2023-02-17T09:49:37.726Z,94.90
2023-02-17T09:52:13.018Z,94.90
2023-02-17T09:54:49.985Z,94.80
2023-02-17T09:57:21.003Z,94.80
2023-02-17T09:59:55.165Z,94.80
2023-02-17T10:02:28.836Z,94.70
2023-02-17T10:04:58.656Z,94.80
2023-02-17T10:07:31.443Z,94.80
2023-02-17T10:10:06.529Z,94.80
2023-02-17T10:12:39.283Z,94.80
2023-02-17T10:15:17.846Z,94.80
2023-02-17T10:17:52.929Z,94.80
2023-02-17T10:20:24.680Z,94.80
2023-02-17T10:22:56.884Z,94.70
2023-02-17T10:25:39.419Z,94.70
2023-02-17T10:28:10.786Z,94.60
2023-02-17T10:30:45.858Z,94.60
2023-02-17T10:33:18.537Z,94.50
2023-02-17T10:36:00.938Z,94.40
2023-02-17T10:38:42.161Z,94.40
2023-02-17T10:41:15.800Z,94.50
2023-02-17T10:43:47.658Z,94.40
2023-02-17T10:46:18.823Z,94.50
2023-02-17T10:48:50.891Z,94.50
2023-02-17T10:51:23.415Z,94.50
2023-02-17T10:53:57.463Z,94.40
2023-02-17T10:56:29.748Z,94.60
2023-02-17T10:59:02.851Z,94.50
2023-02-17T11:01:30.847Z,94.50
2023-02-17T11:04:06.102Z,94.40
2023-02-17T11:06:39.217Z,94.40
2023-02-17T11:09:20.012Z,94.50
2023-02-17T11:11:56.084Z,94.50
2023-02-17T11:14:28.397Z,94.50
2023-02-17T11:17:00.114Z,94.50
2023-02-17T11:19:30.928Z,94.50
2023-02-17T11:22:01.700Z,94.50
2023-02-17T11:24:33.140Z,94.50
2023-02-17T11:27:03.683Z,94.40
2023-02-17T11:29:33.119Z,94.40
2023-02-17T11:32:04.805Z,94.40
2023-02-17T11:34:34.777Z,94.40
2023-02-17T11:37:07.897Z,94.40
2023-02-17T11:39:41.762Z,94.30
2023-02-17T11:42:17.020Z,94.40
2023-02-17T11:44:44.973Z,94.30
2023-02-17T11:47:22.577Z,94.30
2023-02-17T11:50:18.601Z,94.30
2023-02-17T11:53:01.007Z,94.30
2023-02-17T11:55:42.637Z,94.20
2023-02-17T20:52:24.998Z,94.30
2023-02-17T20:54:53.038Z,94.30
2023-02-17T20:57:20.938Z,94.40
2023-02-17T20:59:49.483Z,94.40
2023-02-17T21:02:17.404Z,94.40
2023-02-17T21:04:46.759Z,94.40
2023-02-17T21:07:14.754Z,94.40
2023-02-17T21:09:43.917Z,94.40
2023-02-17T21:12:11.734Z,94.30
2023-02-17T21:14:39.891Z,94.30
2023-02-17T21:17:07.686Z,94.40
2023-02-17T21:19:35.533Z,94.40
2023-02-17T21:22:05.448Z,94.40
2023-02-17T21:24:33.404Z,94.50
2023-02-17T21:27:02.644Z,94.40
2023-02-17T21:29:30.636Z,94.50
2023-02-17T21:31:58.563Z,94.40
2023-02-17T21:34:26.457Z,94.40
2023-02-17T21:36:54.657Z,94.40
2023-02-17T21:39:22.709Z,94.30
2023-02-17T21:41:51.477Z,93.70
2023-02-17T21:44:38.495Z,94.40
2023-02-17T21:47:09.436Z,94.40
2023-02-17T21:49:37.346Z,94.30
2023-02-17T21:52:09.133Z,94.30
2023-02-17T21:54:37.195Z,94.30
2023-02-17T21:57:05.698Z,94.30
2023-02-17T21:59:34.893Z,94.30
2023-02-17T22:02:02.755Z,94.40
2023-02-17T22:04:30.604Z,94.30
2023-02-17T22:06:58.608Z,94.50
2023-02-17T22:09:26.495Z,94.50
2023-02-17T22:11:55.520Z,94.50
2023-02-17T22:14:23.381Z,94.50
2023-02-17T22:16:52.771Z,94.50
2023-02-17T22:19:22.860Z,94.50
2023-02-17T22:21:51.883Z,94.60
2023-02-17T22:24:20.712Z,94.60
2023-02-17T22:26:48.969Z,94.60
2023-02-17T22:29:16.882Z,94.60
2023-02-17T22:31:44.944Z,94.60
2023-02-17T22:34:16.399Z,94.60
2023-02-17T22:36:46.290Z,94.60
2023-02-17T22:39:14.685Z,94.60
2023-02-17T22:41:42.629Z,94.90
2023-02-17T22:44:10.455Z,94.60
2023-02-17T22:46:38.373Z,94.60
2023-02-17T22:49:09.696Z,94.60
2023-02-17T22:51:41.011Z,94.60
2023-02-17T22:54:09.752Z,94.70
2023-02-17T22:56:38.517Z,94.70
2023-02-17T22:59:06.965Z,94.80
2023-02-17T23:01:37.087Z,94.60
2023-02-17T23:04:06.937Z,94.80
2023-02-17T23:06:36.863Z,94.80
2023-02-17T23:09:10.945Z,94.90
2023-02-17T23:11:54.799Z,95.00
2023-02-17T23:14:25.534Z,94.90
2023-02-17T23:16:55.000Z,95.00
2023-02-17T23:19:24.362Z,95.00
2023-02-17T23:21:53.955Z,95.10
2023-02-17T23:24:24.618Z,95.10
2023-02-17T23:26:53.548Z,95.20
2023-02-17T23:29:21.741Z,95.20
2023-02-17T23:31:49.689Z,95.20
2023-02-17T23:34:17.753Z,95.10
2023-02-17T23:36:49.902Z,95.10
2023-02-17T23:39:18.236Z,95.10
2023-02-17T23:41:47.554Z,95.10
2023-02-17T23:44:16.622Z,95.10
2023-02-17T23:46:45.608Z,95.20
2023-02-17T23:49:15.923Z,95.20
2023-02-17T23:51:44.532Z,95.20
2023-02-17T23:54:12.520Z,95.10
2023-02-17T23:56:41.837Z,95.10
2023-02-17T23:59:11.568Z,95.00
